Time;durP1;ratioP1;P1;durP2;ratioP2;P2;SDS_P1;SDS_P2;PMS_P1;PMS_P2;Temp;Humidity;BMP_temperature;BMP_pressure;BME280_temperature;BME280_humidity;BME280_pressure;Samples;Min_cycle;Max_cycle;Signal;HPM_P1;HPM_P2
2021/08/01 00:01:14;;;;;;;10.88;7.57;;;26.90;59.10;;;;;;6086807;28;82398;-69
2021/08/01 00:04:14;;;;;;;13.23;8.02;;;26.90;59.20;;;;;;6088458;28;80964;-69
2021/08/01 00:07:15;;;;;;;11.65;8.38;;;26.80;59.00;;;;;;6087956;28;80358;-69
2021/08/01 00:10:15;;;;;;;10.82;7.85;;;26.70;58.80;;;;;;6087884;28;80530;-69
2021/08/01 00:13:16;;;;;;;10.90;7.82;;;26.70;59.00;;;;;;6088069;28;80397;-69
2021/08/01 00:16:17;;;;;;;12.60;8.13;;;26.70;58.90;;;;;;6089038;28;81104;-69
2021/08/01 00:19:17;;;;;;;11.98;8.52;;;26.60;58.80;;;;;;6087345;28;80520;-69
2021/08/01 00:22:18;;;;;;;14.95;8.10;;;26.60;58.90;;;;;;6087700;28;80710;-68
2021/08/01 00:25:18;;;;;;;12.40;7.70;;;26.50;58.80;;;;;;6088137;28;80588;-68
2021/08/01 00:28:19;;;;;;;11.82;7.93;;;26.50;58.90;;;;;;6086592;28;80380;-69
2021/08/01 00:31:19;;;;;;;10.90;7.80;;;26.50;59.00;;;;;;6086880;28;80601;-68
2021/08/01 00:34:20;;;;;;;8.88;7.38;;;26.50;58.80;;;;;;6086189;28;80274;-68
2021/08/01 00:37:20;;;;;;;11.27;7.82;;;26.50;58.90;;;;;;6086132;28;80854;-71
2021/08/01 00:40:22;;;;;;;10.77;7.93;;;26.50;58.80;;;;;;6088561;28;80627;-71
2021/08/01 00:43:23;;;;;;;15.18;7.82;;;26.60;58.70;;;;;;6084290;28;83290;-72
2021/08/01 00:46:23;;;;;;;12.68;8.25;;;26.60;58.60;;;;;;6086572;28;83356;-70
2021/08/01 00:49:24;;;;;;;13.95;8.15;;;26.60;58.60;;;;;;6086415;28;80176;-70
2021/08/01 00:52:25;;;;;;;9.23;7.60;;;26.60;58.40;;;;;;6085303;28;82598;-71
2021/08/01 00:55:25;;;;;;;10.93;7.60;;;26.60;58.40;;;;;;6086166;28;81712;-71
2021/08/01 00:58:27;;;;;;;10.57;7.72;;;26.60;58.30;;;;;;6085005;28;83055;-70
2021/08/01 01:01:27;;;;;;;12.65;8.18;;;26.70;58.50;;;;;;6087402;28;80420;-71
2021/08/01 01:04:28;;;;;;;13.20;7.65;;;26.70;58.40;;;;;;6086380;28;80534;-69
2021/08/01 01:07:29;;;;;;;10.82;7.15;;;26.70;58.70;;;;;;6086323;28;82021;-69
2021/08/01 01:10:30;;;;;;;12.27;7.28;;;26.70;58.60;;;;;;6085352;28;80421;-69
2021/08/01 01:13:42;;;;;;;10.45;7.57;;;26.70;58.60;;;;;;6085989;28;83412;-69
2021/08/01 01:16:43;;;;;;;8.30;7.05;;;26.80;59.30;;;;;;6085271;28;82480;-68
2021/08/01 01:19:44;;;;;;;9.75;7.10;;;26.80;58.60;;;;;;6085240;28;81361;-68
2021/08/01 01:22:46;;;;;;;10.27;7.53;;;26.80;58.40;;;;;;6100977;28;82911;-69
2021/08/01 01:26:05;;;;;;;10.63;7.82;;;26.80;58.50;;;;;;6087466;28;80939;-69
2021/08/01 01:29:06;;;;;;;10.77;7.72;;;26.70;58.40;;;;;;6085165;28;80859;-70
2021/08/01 01:32:07;;;;;;;12.23;8.25;;;26.70;58.40;;;;;;6083432;28;86938;-70
2021/08/01 01:35:09;;;;;;;12.80;8.77;;;26.60;58.30;;;;;;6083908;28;82261;-69
2021/08/01 01:38:12;;;;;;;11.30;8.55;;;26.60;58.20;;;;;;6090212;28;83149;-69
2021/08/01 01:41:31;;;;;;;15.55;9.07;;;26.60;58.00;;;;;;6084870;28;84633;-68
2021/08/01 01:44:45;;;;;;;12.05;8.50;;;26.50;57.80;;;;;;6083408;28;82740;-69
2021/08/01 01:47:46;;;;;;;20.58;9.52;;;26.40;57.70;;;;;;6078225;28;83524;-68
2021/08/01 01:50:47;;;;;;;10.73;7.72;;;26.30;57.70;;;;;;6087095;28;87479;-69
2021/08/01 01:53:48;;;;;;;13.88;8.43;;;26.30;57.50;;;;;;6085148;28;83037;-68
2021/08/01 01:56:48;;;;;;;16.23;8.68;;;26.30;57.60;;;;;;6087355;28;83020;-68
2021/08/01 01:59:49;;;;;;;10.00;6.95;;;26.20;57.20;;;;;;6087459;28;83443;-69
2021/08/01 02:02:52;;;;;;;10.15;7.82;;;26.30;57.30;;;;;;6089940;28;80626;-69
2021/08/01 02:06:18;;;;;;;12.07;7.93;;;26.20;57.20;;;;;;6089781;28;81238;-71
2021/08/01 02:09:37;;;;;;;10.10;7.38;;;26.20;57.30;;;;;;6089380;28;80475;-70
2021/08/01 02:12:44;;;;;;;10.32;7.40;;;26.30;57.30;;;;;;6086826;28;82761;-70
2021/08/01 02:15:51;;;;;;;9.75;7.25;;;26.30;57.40;;;;;;6087510;28;83482;-69
2021/08/01 02:18:54;;;;;;;13.25;7.70;;;26.20;57.40;;;;;;6087860;28;83126;-70
2021/08/01 02:21:54;;;;;;;11.75;7.25;;;26.20;57.20;;;;;;6086915;28;83357;-70
2021/08/01 02:24:55;;;;;;;9.00;7.35;;;26.20;57.30;;;;;;6088508;28;81508;-71
2021/08/01 02:27:56;;;;;;;12.13;7.15;;;26.30;57.30;;;;;;6088787;28;80580;-71
2021/08/01 02:30:57;;;;;;;9.52;7.10;;;26.40;57.40;;;;;;6087354;28;82880;-70
2021/08/01 02:33:57;;;;;;;12.40;7.18;;;26.30;57.00;;;;;;6087795;28;81144;-69
2021/08/01 02:36:58;;;;;;;12.15;7.22;;;26.30;57.00;;;;;;6089422;28;80760;-68
2021/08/01 02:39:59;;;;;;;11.80;8.23;;;26.30;57.00;;;;;;6087022;28;83289;-69
2021/08/01 02:43:00;;;;;;;10.68;7.47;;;26.30;56.90;;;;;;6090342;28;83219;-69
2021/08/01 02:46:01;;;;;;;8.30;6.53;;;26.30;57.10;;;;;;6087753;28;83202;-69
2021/08/01 02:49:02;;;;;;;9.40;6.70;;;26.30;57.00;;;;;;6087012;28;83058;-68
2021/08/01 02:52:03;;;;;;;9.95;7.05;;;26.40;57.00;;;;;;6087280;28;81583;-69
2021/08/01 02:55:05;;;;;;;8.05;6.85;;;26.40;57.10;;;;;;6087976;28;80547;-71
2021/08/01 02:58:06;;;;;;;8.43;6.28;;;26.40;57.40;;;;;;6088474;28;81838;-69
2021/08/01 03:01:15;;;;;;;9.32;5.90;;;26.50;57.60;;;;;;6087870;28;83023;-69
2021/08/01 03:04:15;;;;;;;10.15;6.43;;;26.50;57.50;;;;;;6087344;28;83407;-69
2021/08/01 03:07:16;;;;;;;8.38;6.53;;;26.50;57.60;;;;;;6089064;28;80424;-70
2021/08/01 03:10:18;;;;;;;9.02;6.63;;;26.50;57.30;;;;;;6087837;28;83098;-69
2021/08/01 03:13:19;;;;;;;7.32;6.00;;;26.50;57.40;;;;;;6089150;28;80541;-68
2021/08/01 03:16:20;;;;;;;9.75;5.97;;;26.50;57.20;;;;;;6089635;28;81937;-68
2021/08/01 03:19:21;;;;;;;8.48;6.00;;;26.50;57.40;;;;;;6092030;28;80347;-67
2021/08/01 03:22:22;;;;;;;9.85;6.72;;;26.50;57.80;;;;;;6087321;28;82670;-68
2021/08/01 03:25:23;;;;;;;13.13;7.60;;;26.60;57.80;;;;;;6086830;28;83412;-70
2021/08/01 03:28:23;;;;;;;11.35;7.22;;;26.60;57.80;;;;;;6087480;28;83301;-69
2021/08/01 03:31:24;;;;;;;11.75;8.23;;;26.50;57.80;;;;;;6088925;28;80817;-69
2021/08/01 03:34:25;;;;;;;17.23;8.52;;;26.60;57.90;;;;;;6085438;28;82082;-69
2021/08/01 03:37:26;;;;;;;12.98;8.32;;;26.50;57.90;;;;;;6088153;28;80544;-72
2021/08/01 03:40:45;;;;;;;12.43;7.60;;;26.60;58.10;;;;;;6086803;28;80325;-70
2021/08/01 03:43:46;;;;;;;12.73;7.55;;;26.60;58.20;;;;;;6087061;28;82950;-70
2021/08/01 03:46:47;;;;;;;13.10;8.68;;;26.60;58.30;;;;;;6087752;28;81651;-71
2021/08/01 03:49:48;;;;;;;13.63;8.38;;;26.60;58.30;;;;;;6087049;28;82020;-71
2021/08/01 03:52:48;;;;;;;12.23;8.43;;;26.60;58.50;;;;;;6087104;28;80733;-71
2021/08/01 03:55:49;;;;;;;11.25;8.23;;;26.70;58.30;;;;;;6088348;28;80167;-71
2021/08/01 03:58:49;;;;;;;14.02;8.05;;;26.60;58.10;;;;;;6088094;28;80762;-71
2021/08/01 04:01:50;;;;;;;12.35;8.27;;;26.60;58.10;;;;;;6087830;28;80254;-71
2021/08/01 04:04:51;;;;;;;11.63;7.53;;;26.60;58.30;;;;;;6088327;28;80193;-70
2021/08/01 04:07:51;;;;;;;14.07;7.40;;;26.60;58.00;;;;;;6086354;28;82888;-74
2021/08/01 04:10:52;;;;;;;13.88;7.65;;;26.70;58.10;;;;;;6086593;28;80646;-70
2021/08/01 04:13:52;;;;;;;12.57;8.13;;;26.70;58.30;;;;;;6089201;28;81417;-72
2021/08/01 04:16:53;;;;;;;10.23;7.72;;;26.70;58.10;;;;;;6089442;28;80660;-71
2021/08/01 04:19:53;;;;;;;11.98;7.88;;;26.60;58.30;;;;;;6088044;28;81887;-71
2021/08/01 04:22:54;;;;;;;13.55;8.20;;;26.70;58.30;;;;;;6090761;28;80200;-70
2021/08/01 04:25:54;;;;;;;10.07;7.88;;;26.70;58.20;;;;;;6087747;28;81705;-70
2021/08/01 04:28:55;;;;;;;13.68;7.10;;;26.70;58.60;;;;;;6086757;28;80583;-70
2021/08/01 04:31:55;;;;;;;16.13;8.05;;;26.70;58.30;;;;;;6087626;28;80338;-72
2021/08/01 04:34:56;;;;;;;15.32;8.38;;;26.70;58.30;;;;;;6091329;28;80470;-69
2021/08/01 04:37:56;;;;;;;12.05;8.57;;;26.70;58.20;;;;;;6092092;28;80380;-74
2021/08/01 04:40:57;;;;;;;11.02;7.50;;;26.80;58.70;;;;;;6086903;28;86938;-69
2021/08/01 04:43:57;;;;;;;16.38;8.65;;;26.80;58.60;;;;;;6089467;28;80430;-70
2021/08/01 04:46:58;;;;;;;10.18;7.75;;;26.80;58.80;;;;;;6087495;28;82575;-68
2021/08/01 04:49:58;;;;;;;11.82;8.00;;;26.80;58.60;;;;;;6088153;28;80932;-70
2021/08/01 04:52:59;;;;;;;11.18;8.05;;;26.80;58.70;;;;;;6086827;28;81237;-68
2021/08/01 04:55:59;;;;;;;13.02;7.85;;;26.80;58.90;;;;;;6089635;28;80494;-71
2021/08/01 04:59:00;;;;;;;14.40;8.80;;;26.80;58.90;;;;;;6088468;28;80258;-70
2021/08/01 05:02:00;;;;;;;14.40;8.75;;;26.90;59.20;;;;;;6088663;28;80939;-69
2021/08/01 05:05:01;;;;;;;13.60;7.95;;;26.90;59.50;;;;;;6087331;28;80311;-69
2021/08/01 05:08:02;;;;;;;12.13;8.57;;;26.90;59.60;;;;;;6088723;28;80679;-69
2021/08/01 05:11:02;;;;;;;12.93;8.55;;;26.90;59.50;;;;;;6087692;28;80188;-71
2021/08/01 05:14:03;;;;;;;13.50;8.25;;;26.90;59.20;;;;;;6087058;28;80517;-72
2021/08/01 05:17:03;;;;;;;19.52;8.70;;;26.90;59.50;;;;;;6089255;28;80312;-72
2021/08/01 05:20:04;;;;;;;13.63;9.60;;;26.90;59.20;;;;;;6085389;28;83276;-70
2021/08/01 05:23:04;;;;;;;16.27;9.65;;;26.90;59.70;;;;;;6085883;28;80852;-70
2021/08/01 05:26:05;;;;;;;23.70;10.25;;;26.90;59.70;;;;;;6089747;28;81981;-69
2021/08/01 05:29:08;;;;;;;13.02;9.32;;;26.90;59.70;;;;;;6083895;28;83499;-70
2021/08/01 05:32:08;;;;;;;15.35;8.88;;;26.90;59.70;;;;;;6091286;28;82732;-70
2021/08/01 05:35:09;;;;;;;12.85;9.57;;;26.90;59.80;;;;;;6092596;28;81656;-71
2021/08/01 05:38:09;;;;;;;11.20;8.88;;;26.80;59.70;;;;;;6091874;28;81061;-67
2021/08/01 05:41:10;;;;;;;14.43;9.18;;;26.80;59.80;;;;;;6089300;28;81415;-68
2021/08/01 05:44:10;;;;;;;14.63;9.73;;;26.80;59.70;;;;;;6093655;28;81110;-69
2021/08/01 05:47:11;;;;;;;16.25;9.32;;;26.80;60.30;;;;;;6091205;28;81785;-69
2021/08/01 05:50:11;;;;;;;16.17;9.80;;;26.80;59.50;;;;;;6091425;28;80322;-69
2021/08/01 05:53:12;;;;;;;20.00;10.80;;;26.80;59.70;;;;;;6090131;28;86524;-68
2021/08/01 05:56:12;;;;;;;23.45;10.65;;;26.80;60.60;;;;;;6087551;28;83537;-69
2021/08/01 05:59:13;;;;;;;20.27;10.38;;;26.80;60.00;;;;;;6090104;28;83224;-71
2021/08/01 06:02:13;;;;;;;21.05;10.95;;;26.90;59.60;;;;;;6088831;28;83790;-72
2021/08/01 06:05:14;;;;;;;18.33;9.82;;;26.90;60.70;;;;;;6088988;28;83140;-70
2021/08/01 06:08:14;;;;;;;20.60;9.55;;;26.90;59.60;;;;;;6094041;28;86319;-70
2021/08/01 06:11:15;;;;;;;20.67;10.00;;;26.90;60.30;;;;;;6089470;28;81230;-69
2021/08/01 06:14:15;;;;;;;15.50;9.60;;;26.90;60.20;;;;;;6085809;28;82766;-72
2021/08/01 06:17:16;;;;;;;13.63;9.00;;;26.90;60.00;;;;;;6089347;28;81930;-71
2021/08/01 06:20:16;;;;;;;20.85;10.20;;;26.90;59.70;;;;;;6090899;28;80388;-71
2021/08/01 06:23:17;;;;;;;22.75;10.38;;;26.90;60.10;;;;;;6092775;28;83252;-71
2021/08/01 06:26:17;;;;;;;18.02;9.60;;;26.90;59.90;;;;;;6087843;28;84122;-70
2021/08/01 06:29:18;;;;;;;17.95;9.45;;;26.90;60.10;;;;;;6093708;28;81669;-70
2021/08/01 06:32:18;;;;;;;16.88;9.40;;;26.90;60.60;;;;;;6101538;28;81469;-69
2021/08/01 06:35:19;;;;;;;16.88;9.60;;;27.00;60.90;;;;;;6089266;28;80481;-72
2021/08/01 06:38:19;;;;;;;15.70;9.38;;;27.00;60.60;;;;;;6100482;28;80724;-70
2021/08/01 06:41:20;;;;;;;19.25;10.07;;;27.10;60.70;;;;;;6099371;28;80731;-71
2021/08/01 06:44:20;;;;;;;19.85;10.57;;;27.00;60.50;;;;;;6101091;28;83230;-73
2021/08/01 06:47:21;;;;;;;19.30;10.10;;;27.10;60.40;;;;;;6097094;28;84229;-72
2021/08/01 06:50:21;;;;;;;18.73;9.65;;;27.00;60.50;;;;;;6097480;28;83375;-72
2021/08/01 06:53:22;;;;;;;17.20;10.70;;;27.00;60.60;;;;;;6096968;28;81808;-72
2021/08/01 06:56:22;;;;;;;14.68;9.82;;;27.00;60.90;;;;;;6092596;28;83281;-69
2021/08/01 06:59:23;;;;;;;20.63;10.30;;;27.00;60.70;;;;;;6097850;28;83377;-70
2021/08/01 07:02:23;;;;;;;16.25;9.73;;;27.00;61.20;;;;;;6090682;28;83221;-68
2021/08/01 07:05:24;;;;;;;16.00;10.18;;;27.00;61.50;;;;;;6091915;28;83169;-71
2021/08/01 07:08:24;;;;;;;19.40;9.52;;;27.00;60.70;;;;;;6088607;28;83449;-70
2021/08/01 07:11:25;;;;;;;20.02;10.68;;;27.00;60.80;;;;;;6092269;28;82975;-69
2021/08/01 07:14:25;;;;;;;23.15;9.93;;;27.10;61.10;;;;;;6082758;28;82989;-69
2021/08/01 07:17:26;;;;;;;14.25;9.88;;;27.10;60.90;;;;;;6092513;28;82721;-68
2021/08/01 07:20:26;;;;;;;23.23;9.98;;;27.10;61.10;;;;;;6094970;28;80608;-72
2021/08/01 07:23:27;;;;;;;12.27;9.32;;;27.10;60.70;;;;;;6077287;28;84369;-70
2021/08/01 07:26:27;;;;;;;12.80;8.43;;;27.10;59.90;;;;;;6089824;28;87691;-68
2021/08/01 07:29:28;;;;;;;17.27;9.93;;;27.10;60.40;;;;;;6091230;28;81660;-68
2021/08/01 07:32:28;;;;;;;14.55;8.90;;;27.10;60.40;;;;;;6101331;28;82503;-69
2021/08/01 07:35:29;;;;;;;15.75;9.63;;;27.00;60.10;;;;;;6093375;28;80838;-70
2021/08/01 07:38:29;;;;;;;13.48;9.32;;;27.00;60.90;;;;;;6100976;28;81727;-69
2021/08/01 07:41:30;;;;;;;14.73;9.93;;;27.00;60.70;;;;;;6089083;28;81570;-71
2021/08/01 07:44:35;;;;;;;13.35;8.48;;;27.00;60.30;;;;;;6087815;28;80444;-70
2021/08/01 07:47:35;;;;;;;12.63;8.77;;;27.00;60.30;;;;;;6091934;28;80602;-69
2021/08/01 07:50:36;;;;;;;13.35;9.60;;;27.00;61.20;;;;;;6092951;28;80374;-69
2021/08/01 07:53:36;;;;;;;16.55;9.57;;;27.00;61.40;;;;;;6090539;28;80416;-69
2021/08/01 07:56:37;;;;;;;16.30;10.35;;;27.00;60.80;;;;;;6091956;28;81408;-71
2021/08/01 07:59:38;;;;;;;13.50;9.38;;;27.00;61.00;;;;;;6095107;28;83217;-70
2021/08/01 08:02:38;;;;;;;19.88;10.43;;;27.00;60.60;;;;;;6096798;28;83030;-70
2021/08/01 08:05:39;;;;;;;16.05;10.50;;;27.00;60.50;;;;;;6096978;28;82922;-69
2021/08/01 08:08:39;;;;;;;16.80;9.75;;;27.00;60.70;;;;;;6089079;28;83336;-71
2021/08/01 08:11:40;;;;;;;16.10;9.80;;;27.00;60.70;;;;;;6088009;28;82854;-69
2021/08/01 08:14:40;;;;;;;14.68;9.88;;;27.00;60.80;;;;;;6091730;28;81033;-70
2021/08/01 08:17:41;;;;;;;12.68;8.65;;;27.00;60.40;;;;;;6087179;28;81600;-70
2021/08/01 08:20:41;;;;;;;13.98;8.95;;;27.00;60.40;;;;;;6093052;28;80465;-69
2021/08/01 08:23:42;;;;;;;16.48;9.00;;;27.00;60.90;;;;;;6089565;28;80851;-69
2021/08/01 08:26:42;;;;;;;11.55;8.55;;;27.00;60.50;;;;;;6093980;28;80504;-69
2021/08/01 08:29:43;;;;;;;11.60;7.97;;;27.00;60.80;;;;;;6087431;28;80116;-69
2021/08/01 08:32:43;;;;;;;14.50;9.15;;;27.00;60.70;;;;;;6088043;28;81355;-71
2021/08/01 08:35:44;;;;;;;18.05;10.23;;;27.00;60.60;;;;;;6086581;28;80888;-69
2021/08/01 08:38:44;;;;;;;19.65;11.82;;;27.10;60.90;;;;;;6085109;28;83547;-65
2021/08/01 08:41:45;;;;;;;23.52;14.75;;;27.10;61.40;;;;;;6086379;28;82990;-67
2021/08/01 08:44:45;;;;;;;21.13;12.40;;;27.10;61.40;;;;;;6084790;28;84245;-65
2021/08/01 08:47:46;;;;;;;26.17;13.15;;;27.10;61.60;;;;;;6084042;28;82821;-67
2021/08/01 08:50:46;;;;;;;18.70;12.40;;;27.10;61.70;;;;;;6083433;28;83353;-67
2021/08/01 08:53:48;;;;;;;22.30;12.35;;;27.10;62.60;;;;;;6085142;28;83630;-68
2021/08/01 08:56:48;;;;;;;18.10;12.63;;;27.10;63.10;;;;;;6085195;28;82974;-68
2021/08/01 08:59:49;;;;;;;18.17;12.60;;;27.10;63.30;;;;;;6087262;28;83402;-70
2021/08/01 09:02:50;;;;;;;20.23;12.07;;;27.10;63.80;;;;;;6085016;28;83566;-68
2021/08/01 09:05:55;;;;;;;15.63;11.13;;;27.20;65.10;;;;;;6088431;28;84686;-69
2021/08/01 09:08:55;;;;;;;20.37;10.47;;;27.10;64.10;;;;;;6089405;28;83484;-70
2021/08/01 09:11:56;;;;;;;14.95;10.05;;;27.10;65.10;;;;;;6091063;28;83108;-68
2021/08/01 09:14:56;;;;;;;15.70;10.45;;;27.20;65.20;;;;;;6087941;28;83084;-69
2021/08/01 09:17:57;;;;;;;14.00;9.40;;;27.20;63.70;;;;;;6084123;28;82968;-69
2021/08/01 09:20:57;;;;;;;14.00;8.80;;;27.10;63.30;;;;;;6092568;28;85839;-69
2021/08/01 09:23:58;;;;;;;12.07;8.48;;;27.10;63.10;;;;;;6097050;28;80216;-71
2021/08/01 09:27:02;;;;;;;11.88;8.45;;;27.00;63.30;;;;;;6092694;28;81932;-70
2021/08/01 09:30:02;;;;;;;11.70;7.95;;;27.00;63.20;;;;;;6081794;28;80319;-70
2021/08/01 09:33:03;;;;;;;11.15;6.95;;;26.90;63.50;;;;;;6090409;28;81440;-71
2021/08/01 09:36:03;;;;;;;11.02;7.40;;;26.90;63.70;;;;;;6105632;28;83856;-69
2021/08/01 09:39:04;;;;;;;10.65;7.78;;;26.90;63.70;;;;;;6084442;28;80362;-69
2021/08/01 09:42:05;;;;;;;10.02;6.60;;;26.90;63.60;;;;;;6097042;28;81065;-68
2021/08/01 09:45:05;;;;;;;12.50;6.93;;;26.80;63.50;;;;;;6089735;28;81306;-68
2021/08/01 09:48:06;;;;;;;11.57;7.90;;;26.80;63.30;;;;;;6089153;28;82175;-69
2021/08/01 09:51:06;;;;;;;9.70;6.72;;;26.70;63.30;;;;;;6092586;28;81095;-70
2021/08/01 09:54:07;;;;;;;12.63;6.75;;;26.70;63.70;;;;;;6089902;28;80428;-70
2021/08/01 09:57:07;;;;;;;12.73;6.35;;;26.70;63.80;;;;;;6093717;28;81622;-70
2021/08/01 10:00:08;;;;;;;7.35;5.50;;;26.80;63.30;;;;;;6092736;28;80160;-70
2021/08/01 10:03:09;;;;;;;9.35;6.40;;;26.90;62.90;;;;;;6091206;28;80416;-68
2021/08/01 10:06:10;;;;;;;9.77;5.90;;;26.90;62.70;;;;;;6092493;28;81194;-66
2021/08/01 10:09:10;;;;;;;12.02;6.22;;;26.90;61.90;;;;;;6084281;28;80804;-69
2021/08/01 10:12:11;;;;;;;8.18;6.13;;;26.90;61.60;;;;;;6090841;28;80117;-67
2021/08/01 10:15:11;;;;;;;12.88;5.40;;;26.90;61.70;;;;;;6087414;28;81454;-71
2021/08/01 10:18:12;;;;;;;9.25;6.13;;;26.90;61.70;;;;;;6089953;28;82590;-72
2021/08/01 10:21:12;;;;;;;6.18;5.22;;;27.00;61.40;;;;;;6086295;28;80524;-72
2021/08/01 10:24:13;;;;;;;9.45;5.53;;;27.00;61.50;;;;;;6089771;28;80273;-70
2021/08/01 10:27:13;;;;;;;8.48;5.65;;;27.00;61.40;;;;;;6092171;28;80540;-70
2021/08/01 10:30:14;;;;;;;11.52;5.53;;;27.00;61.60;;;;;;6089327;28;80811;-69
2021/08/01 10:33:14;;;;;;;12.65;5.55;;;27.00;61.60;;;;;;6090595;28;80668;-69
2021/08/01 10:36:15;;;;;;;7.05;5.47;;;27.10;61.60;;;;;;6090823;28;84477;-70
2021/08/01 10:39:15;;;;;;;6.93;5.15;;;27.00;61.40;;;;;;6098407;28;83780;-69
2021/08/01 10:42:16;;;;;;;6.25;4.65;;;26.90;60.60;;;;;;6085495;28;80592;-68
2021/08/01 10:45:20;;;;;;;7.00;4.30;;;26.50;61.40;;;;;;6085490;28;80678;-70
2021/08/01 10:48:20;;;;;;;7.03;4.28;;;26.20;60.90;;;;;;6080711;28;80718;-71
2021/08/01 10:51:21;;;;;;;4.45;3.72;;;26.00;61.80;;;;;;6085365;28;80662;-70
2021/08/01 10:54:23;;;;;;;11.43;5.50;;;25.80;61.90;;;;;;6083695;28;82660;-71
2021/08/01 10:57:24;;;;;;;5.10;3.40;;;25.60;61.70;;;;;;6087275;28;80338;-69
2021/08/01 11:00:24;;;;;;;6.38;3.78;;;25.50;62.20;;;;;;6083526;28;80827;-69
2021/08/01 11:03:25;;;;;;;5.47;3.35;;;25.30;62.20;;;;;;6085392;28;80563;-69
2021/08/01 11:06:25;;;;;;;4.32;3.38;;;25.30;62.40;;;;;;6078606;28;80559;-70
2021/08/01 11:09:26;;;;;;;8.73;3.78;;;25.30;62.50;;;;;;6079730;28;80484;-71
2021/08/01 11:12:27;;;;;;;5.32;3.10;;;25.40;62.30;;;;;;6088226;28;80960;-71
2021/08/01 11:15:27;;;;;;;5.63;3.30;;;25.40;62.00;;;;;;6084609;28;80856;-73
2021/08/01 11:18:28;;;;;;;3.42;3.00;;;25.50;62.10;;;;;;6085676;28;80674;-70
2021/08/01 11:21:28;;;;;;;4.07;3.25;;;25.40;62.00;;;;;;6084972;28;80320;-71
2021/08/01 11:24:29;;;;;;;3.60;3.22;;;25.50;61.60;;;;;;6096307;28;82923;-70
2021/08/01 11:27:29;;;;;;;5.10;3.00;;;25.60;61.70;;;;;;6083593;28;81116;-71
2021/08/01 11:30:30;;;;;;;4.20;3.00;;;25.60;61.50;;;;;;6083759;28;80650;-70
2021/08/01 11:33:30;;;;;;;6.80;3.38;;;25.80;61.40;;;;;;6084043;28;80504;-71
2021/08/01 11:36:31;;;;;;;3.30;3.00;;;25.90;61.20;;;;;;6083529;28;82961;-71
2021/08/01 11:39:32;;;;;;;5.47;2.90;;;26.00;60.90;;;;;;6085903;28;80548;-71
2021/08/01 11:42:32;;;;;;;6.10;4.40;;;26.20;60.70;;;;;;6085558;28;80984;-70
2021/08/01 11:45:33;;;;;;;6.78;3.80;;;26.10;60.40;;;;;;6083079;28;80515;-71
2021/08/01 11:48:33;;;;;;;4.57;3.10;;;26.10;60.40;;;;;;6084983;28;80647;-71
2021/08/01 11:51:33;;;;;;;3.83;3.17;;;25.90;60.80;;;;;;6085463;28;80354;-70
2021/08/01 11:54:34;;;;;;;3.10;2.80;;;26.00;60.50;;;;;;6087008;28;80649;-69
2021/08/01 11:57:35;;;;;;;2.88;2.63;;;26.00;59.90;;;;;;6084881;28;81479;-71
2021/08/01 12:00:35;;;;;;;3.75;2.85;;;26.10;60.10;;;;;;6087096;28;80981;-71
2021/08/01 12:03:36;;;;;;;3.83;2.90;;;26.00;59.30;;;;;;6088537;28;80348;-69
2021/08/01 12:06:36;;;;;;;3.72;2.60;;;26.00;59.10;;;;;;6085412;28;80805;-70
2021/08/01 12:09:37;;;;;;;2.88;2.47;;;26.10;58.90;;;;;;6085714;28;80425;-70
2021/08/01 12:12:37;;;;;;;5.05;2.67;;;26.10;58.80;;;;;;6088119;28;80445;-69
2021/08/01 12:15:38;;;;;;;2.42;2.17;;;26.10;58.70;;;;;;6087494;28;80383;-70
2021/08/01 12:18:38;;;;;;;2.55;2.20;;;26.10;58.80;;;;;;6086563;28;80417;-69
2021/08/01 12:21:39;;;;;;;4.43;2.35;;;26.20;58.80;;;;;;6085903;28;80579;-68
2021/08/01 12:24:39;;;;;;;2.40;2.20;;;26.30;58.60;;;;;;6085753;28;80652;-70
2021/08/01 12:27:40;;;;;;;3.63;2.78;;;26.40;58.70;;;;;;6086495;28;80523;-71
2021/08/01 12:30:40;;;;;;;2.47;2.28;;;26.50;58.80;;;;;;6084886;28;81211;-70
2021/08/01 12:33:41;;;;;;;4.68;2.97;;;26.50;59.00;;;;;;6087096;28;80381;-70
2021/08/01 12:36:41;;;;;;;5.78;4.78;;;26.60;58.90;;;;;;6085049;28;81546;-69
2021/08/01 12:39:42;;;;;;;5.18;4.05;;;26.50;58.80;;;;;;6085429;28;80565;-70
2021/08/01 12:42:42;;;;;;;5.03;3.40;;;26.50;58.50;;;;;;6086265;28;80454;-70
2021/08/01 12:45:43;;;;;;;2.88;2.60;;;26.50;58.60;;;;;;6087609;28;80441;-69
2021/08/01 12:48:43;;;;;;;2.40;2.20;;;26.40;57.80;;;;;;6085238;28;82008;-69
2021/08/01 12:51:45;;;;;;;2.65;2.45;;;26.40;58.40;;;;;;6085444;28;80748;-70
2021/08/01 12:54:46;;;;;;;3.80;2.83;;;26.40;58.90;;;;;;6083769;28;80734;-70
2021/08/01 12:57:46;;;;;;;3.53;3.10;;;26.40;58.10;;;;;;6084448;28;82291;-73
2021/08/01 13:00:47;;;;;;;3.88;2.85;;;26.50;58.40;;;;;;6086162;28;80406;-75
2021/08/01 13:03:48;;;;;;;3.35;2.30;;;26.50;58.60;;;;;;6083406;28;82664;-73
2021/08/01 13:06:49;;;;;;;3.65;2.30;;;26.50;58.70;;;;;;6086683;28;81008;-71
2021/08/01 13:09:49;;;;;;;3.03;2.60;;;26.50;58.50;;;;;;6086675;28;80592;-73
2021/08/01 13:12:50;;;;;;;2.60;2.40;;;26.60;58.60;;;;;;6083347;28;81879;-79
2021/08/01 13:15:50;;;;;;;3.83;2.58;;;26.60;58.50;;;;;;6082781;28;81596;-72
2021/08/01 13:18:51;;;;;;;6.70;3.15;;;26.70;59.10;;;;;;6085436;28;80086;-74
2021/08/01 13:21:51;;;;;;;4.80;3.38;;;26.70;59.60;;;;;;6087013;28;80597;-74
2021/08/01 13:24:52;;;;;;;5.75;3.55;;;26.70;59.10;;;;;;6085379;28;81569;-72
2021/08/01 13:27:52;;;;;;;3.78;3.08;;;26.70;58.90;;;;;;6091721;28;80781;-75
2021/08/01 13:30:53;;;;;;;5.95;3.17;;;26.70;59.30;;;;;;6087386;28;80940;-74
2021/08/01 13:33:53;;;;;;;6.10;3.25;;;26.70;59.10;;;;;;6086856;28;82354;-74
2021/08/01 13:36:55;;;;;;;6.68;3.58;;;26.70;58.90;;;;;;6088543;28;80567;-74
2021/08/01 13:39:56;;;;;;;4.28;3.20;;;26.70;59.00;;;;;;6087038;28;80531;-74
2021/08/01 13:42:56;;;;;;;7.15;3.25;;;26.70;59.00;;;;;;6091677;28;79986;-73
2021/08/01 13:45:57;;;;;;;5.05;3.10;;;26.80;59.30;;;;;;6087290;28;81119;-74
2021/08/01 13:48:57;;;;;;;3.53;3.05;;;26.80;59.30;;;;;;6093240;28;80349;-74
2021/08/01 13:51:58;;;;;;;2.90;2.50;;;26.90;59.10;;;;;;6088294;28;80164;-73
2021/08/01 13:54:58;;;;;;;6.20;3.15;;;26.90;58.80;;;;;;6091726;28;80171;-74
2021/08/01 13:57:59;;;;;;;3.45;2.67;;;26.90;59.00;;;;;;6088244;28;81836;-74
2021/08/01 14:00:59;;;;;;;3.22;2.85;;;26.90;59.00;;;;;;6091929;28;80550;-73
2021/08/01 14:04:00;;;;;;;5.00;2.67;;;26.90;59.50;;;;;;6091207;28;81027;-77
2021/08/01 14:07:00;;;;;;;7.60;3.35;;;26.90;59.50;;;;;;6099295;28;79993;-74
2021/08/01 14:10:01;;;;;;;6.63;2.75;;;26.90;60.00;;;;;;6100234;28;80388;-75
2021/08/01 14:13:01;;;;;;;5.00;2.80;;;26.90;59.20;;;;;;6092599;28;80383;-76
2021/08/01 14:16:02;;;;;;;6.95;2.72;;;26.90;59.20;;;;;;6086957;28;81981;-72
2021/08/01 14:19:03;;;;;;;4.13;2.90;;;26.90;59.10;;;;;;6090631;28;82827;-72
2021/08/01 14:22:03;;;;;;;4.82;2.55;;;26.90;59.80;;;;;;6094318;28;81225;-75
2021/08/01 14:25:03;;;;;;;5.93;2.85;;;26.90;59.60;;;;;;6097980;28;80491;-70
2021/08/01 14:28:04;;;;;;;3.20;2.28;;;26.90;59.90;;;;;;6095966;28;81993;-71
2021/08/01 14:31:04;;;;;;;3.22;2.20;;;26.90;60.10;;;;;;6090827;28;80641;-70
2021/08/01 14:34:05;;;;;;;4.70;2.05;;;26.90;60.50;;;;;;6092349;28;81693;-71
2021/08/01 14:37:05;;;;;;;5.35;2.15;;;26.90;60.30;;;;;;6091424;28;80433;-74
2021/08/01 14:40:06;;;;;;;2.92;2.40;;;26.90;60.30;;;;;;6094161;28;80433;-73
2021/08/01 14:43:06;;;;;;;3.42;2.50;;;26.90;60.40;;;;;;6093803;28;81225;-73
2021/08/01 14:46:07;;;;;;;2.67;2.20;;;26.90;60.50;;;;;;6094293;28;80616;-74
2021/08/01 14:49:13;;;;;;;2.50;2.00;;;26.90;61.00;;;;;;6094307;28;80970;-74
2021/08/01 14:55:33;;;;;;;2.60;2.30;;;26.90;61.10;;;;;;6091283;28;81422;-74
2021/08/01 14:58:34;;;;;;;5.40;2.20;;;26.90;60.80;;;;;;6093717;28;80506;-74
2021/08/01 15:01:35;;;;;;;2.78;2.28;;;26.90;60.50;;;;;;6082272;28;83399;-74
2021/08/01 15:04:35;;;;;;;3.85;2.10;;;27.00;60.40;;;;;;6096367;28;80475;-75
2021/08/01 15:07:36;;;;;;;4.25;2.22;;;27.00;60.50;;;;;;6091884;28;81367;-74
2021/08/01 15:10:37;;;;;;;2.85;2.20;;;27.00;60.60;;;;;;6090845;28;80601;-73
2021/08/01 15:13:37;;;;;;;3.70;2.55;;;26.90;60.80;;;;;;6092862;28;87940;-74
2021/08/01 15:16:38;;;;;;;3.47;2.30;;;27.00;60.90;;;;;;6082677;28;81033;-74
2021/08/01 15:19:38;;;;;;;2.97;2.20;;;27.00;60.90;;;;;;6091331;28;80060;-75
2021/08/01 15:22:41;;;;;;;3.28;2.25;;;26.90;61.00;;;;;;6091525;28;83682;-73
2021/08/01 15:25:46;;;;;;;2.53;2.22;;;26.90;61.60;;;;;;6097562;28;80341;-74
2021/08/01 15:28:47;;;;;;;;;;;26.90;61.70;;;;;;6086127;28;81616;-72
2021/08/01 15:31:47;;;;;;;5.22;2.63;;;26.90;61.90;;;;;;6097786;28;81222;-71
2021/08/01 15:34:49;;;;;;;3.90;2.40;;;26.90;62.50;;;;;;6089665;28;81094;-71
2021/08/01 15:37:49;;;;;;;3.72;2.60;;;26.90;62.50;;;;;;6090148;28;80536;-72